Airfield :
LOGIN :

Register | Disclaimer

   EN    FR    IT 

 










Legend :    VFR   Marginal VFR   IFR   Intensive IFR   Very Intensive IFR
Visi :
Ceiling :
>= 8 km
>= 3000ft
5 to 8 km
1000 to 3000 ft
1500m to 5 km
500 to 1000 ft
800 to 1500m
200 to 500 ft
< 800m
< 200 ft
Symbols :   Thunderstorms  Fog  Heavy snow  Heavy precipitations  Wind > 20 kt
SIGMETs :     Misc.  Thunderstorms  Icing  Turbulence  Mountain Waves  Volcanic Ashes






- Airport Elevation : 1058 ft
- IATA code : SCN


EDDR - Saarbrücken

CURRENT METAR :
  • 070820Z AUTO 22005KT 190V280 9999 BKN034 17/12 Q1023 NOSIG

EXPIRED METARs :
  • 070750Z AUTO 18005KT CAVOK 16/11 Q1023 NOSIG
  • 070720Z AUTO 23003KT 160V270 9999 FEW031 16/12 Q1022 NOSIG
  • 070650Z AUTO 26003KT 230V290 9999 SCT037 BKN049 15/11 Q1022 NOSIG
  • 070620Z AUTO 27003KT 240V300 9999 OVC030 15/11 Q1022 NOSIG
  • 070550Z AUTO 27003KT 9999 BKN034 14/10 Q1022 NOSIG

TAF TAF EDDR
Valid from the 07 at 06:00 until the 08 at 06:00 UTC


070500Z 0706/0806 VRB03KT CAVOK
BECMG 0706/0708 27007KT
BECMG 0708/0710 30012KT
PROB30
TEMPO 0711/0714 30015G25KT SHRA BKN025CB
BECMG 0718/0721 35007KT



MET'MAP, your aeronautical weather chart ! - Copyright ORBIFLY December 2007 - Disclaimer

ORBIFLY MET'MAP TEAM :

Programming & Development : Alexandra Zaïnal
Original concept : Baudouin d'Aumeries
Technical & hardware support : Manuel Goepfert
Assistance : Marc-Olivier Méhu




SOURCES & CREDITS :

   NOAA